createdAt,value
2022-08-18T00:02:03.076Z,17.50
2022-08-18T00:07:03.419Z,21.60
2022-08-18T00:12:05.702Z,18.70
2022-08-18T00:17:04.445Z,18.60
2022-08-18T00:22:03.011Z,20.30
2022-08-18T00:27:03.616Z,17.70
2022-08-18T00:32:12.581Z,21.90
2022-08-18T00:37:11.909Z,18.20
2022-08-18T00:42:27.506Z,20.60
2022-08-18T00:47:33.100Z,18.20
2022-08-18T00:52:42.928Z,17.30
2022-08-18T00:57:44.001Z,16.70
2022-08-18T01:02:51.375Z,18.50
2022-08-18T01:07:52.899Z,18.50
2022-08-18T01:12:56.310Z,17.90
2022-08-18T01:18:13.091Z,17.20
2022-08-18T01:23:19.393Z,19.20
2022-08-18T01:28:19.648Z,18.50
2022-08-18T01:33:19.589Z,18.20
2022-08-18T01:38:20.159Z,17.20
2022-08-18T01:43:20.185Z,17.50
2022-08-18T01:48:19.317Z,18.20
2022-08-18T01:53:19.387Z,18.30
2022-08-18T01:58:17.927Z,16.10
2022-08-18T02:03:18.916Z,17.50
2022-08-18T02:08:17.927Z,18.20
2022-08-18T02:13:16.478Z,16.00
2022-08-18T02:18:43.544Z,17.20
2022-08-18T02:23:40.386Z,17.80
2022-08-18T02:28:44.336Z,16.10
2022-08-18T02:33:48.511Z,16.80
2022-08-18T02:38:54.809Z,18.00
2022-08-18T02:43:57.985Z,16.50
2022-08-18T02:48:57.008Z,19.00
2022-08-18T02:53:59.589Z,18.20
2022-08-18T02:59:02.168Z,15.90
2022-08-18T03:04:03.017Z,18.40
2022-08-18T03:09:01.572Z,16.50
2022-08-18T03:14:01.815Z,17.90
2022-08-18T03:19:01.243Z,15.00
2022-08-18T03:24:02.864Z,17.60
2022-08-18T03:29:07.899Z,15.30
2022-08-18T03:34:08.635Z,18.90
2022-08-18T03:39:12.248Z,17.80
2022-08-18T03:44:11.610Z,19.10
2022-08-18T03:49:10.321Z,17.40
2022-08-18T03:54:10.224Z,17.60
2022-08-18T03:59:13.994Z,17.60
2022-08-18T04:04:17.226Z,19.20
2022-08-18T04:09:19.028Z,18.40
2022-08-18T04:14:21.802Z,17.80
2022-08-18T04:19:26.231Z,19.40
2022-08-18T04:24:28.101Z,25.60
2022-08-18T04:29:27.808Z,22.00
2022-08-18T04:34:27.539Z,18.60
2022-08-18T04:39:27.098Z,20.20
2022-08-18T04:44:26.308Z,19.60
2022-08-18T04:49:27.505Z,20.20
2022-08-18T04:54:28.589Z,19.40
2022-08-18T04:59:28.306Z,19.60
2022-08-18T05:04:29.775Z,21.40
2022-08-18T05:09:29.612Z,19.70
2022-08-18T05:14:28.506Z,21.30
2022-08-18T05:19:27.279Z,19.80
2022-08-18T05:24:32.173Z,21.20
2022-08-18T05:29:41.871Z,19.90
2022-08-18T05:34:48.913Z,20.90
2022-08-18T05:40:05.274Z,22.70
2022-08-18T05:45:17.388Z,24.40
2022-08-18T05:50:20.870Z,24.40
2022-08-18T05:55:47.597Z,25.50
2022-08-18T06:00:59.847Z,27.80
2022-08-18T06:06:03.320Z,28.90
2022-08-18T06:11:02.073Z,29.10
2022-08-18T06:16:13.486Z,26.90
2022-08-18T06:21:36.904Z,24.30
2022-08-18T06:26:48.572Z,26.40
2022-08-18T06:32:05.566Z,21.20
2022-08-18T06:37:15.550Z,25.50
2022-08-18T06:42:18.788Z,20.20
2022-08-18T06:47:33.051Z,18.30
2022-08-18T06:52:37.217Z,18.30
2022-08-18T06:57:41.122Z,19.20
2022-08-18T07:02:56.695Z,17.30
2022-08-18T07:08:19.650Z,17.90
2022-08-18T07:13:30.158Z,18.80
2022-08-18T07:18:31.785Z,17.20
2022-08-18T07:23:38.468Z,16.30
2022-08-18T07:28:41.734Z,11.40
2022-08-18T07:33:43.736Z,13.20
2022-08-18T07:38:49.743Z,13.30
2022-08-18T07:44:11.383Z,11.80
2022-08-18T07:49:22.333Z,11.60
2022-08-18T07:54:53.012Z,12.40
2022-08-18T08:00:02.737Z,11.40
2022-08-18T08:05:23.549Z,10.90
2022-08-18T08:10:37.550Z,13.30
2022-08-18T08:15:52.588Z,11.00
2022-08-18T08:20:57.551Z,11.90
2022-08-18T08:26:14.445Z,12.10
2022-08-18T08:31:36.819Z,13.60
2022-08-18T08:36:41.094Z,10.90
2022-08-18T08:41:46.038Z,12.20
2022-08-18T08:46:55.640Z,12.60
2022-08-18T08:52:01.328Z,10.80
2022-08-18T08:57:04.316Z,9.90
2022-08-18T09:02:47.202Z,12.00
2022-08-18T09:08:18.365Z,10.70
2022-08-18T09:13:50.616Z,9.90
2022-08-18T09:19:14.417Z,10.80
2022-08-18T09:24:30.235Z,9.50
2022-08-18T09:29:55.816Z,10.70
2022-08-18T09:35:13.309Z,11.50
2022-08-18T09:41:02.067Z,9.80
2022-08-18T09:46:05.027Z,9.30
2022-08-18T09:51:40.201Z,9.20
2022-08-18T09:57:21.020Z,9.60
2022-08-18T10:03:25.440Z,9.60
2022-08-18T10:15:03.840Z,11.80
2022-08-18T10:20:26.091Z,9.60
2022-08-18T10:25:42.436Z,9.90
2022-08-18T10:31:09.715Z,11.50
2022-08-18T10:36:11.018Z,9.30
2022-08-18T10:41:21.834Z,10.30
2022-08-18T10:46:31.868Z,10.80
2022-08-18T10:52:01.440Z,9.40
2022-08-18T10:57:15.181Z,11.40
2022-08-18T11:02:33.253Z,9.60
2022-08-18T11:07:39.705Z,10.80
2022-08-18T11:18:42.986Z,9.40
2022-08-18T11:23:42.683Z,8.70
2022-08-18T11:28:45.095Z,7.70
2022-08-18T11:33:46.565Z,9.20
2022-08-18T11:39:02.925Z,9.60
2022-08-18T11:44:07.511Z,11.60
2022-08-18T11:49:24.131Z,9.20
2022-08-18T11:54:37.829Z,13.50
2022-08-18T11:59:54.743Z,8.80
2022-08-18T12:05:10.238Z,8.70
2022-08-18T12:10:32.257Z,10.10
2022-08-18T12:15:44.420Z,9.10
2022-08-18T12:20:45.711Z,8.30
2022-08-18T12:31:15.140Z,9.20
2022-08-18T12:36:16.290Z,9.90
2022-08-18T12:41:19.917Z,9.80
2022-08-18T12:46:22.950Z,9.80
2022-08-18T12:51:30.710Z,8.90
2022-08-18T12:56:32.975Z,10.10
2022-08-18T13:01:34.880Z,8.30
2022-08-18T13:06:54.149Z,8.20
2022-08-18T13:12:00.388Z,8.50
2022-08-18T13:16:59.444Z,8.80
2022-08-18T13:21:58.286Z,10.00
2022-08-18T13:26:58.254Z,8.70
2022-08-18T13:31:59.721Z,9.30
2022-08-18T13:36:59.286Z,9.00
2022-08-18T13:42:00.676Z,8.90
2022-08-18T13:47:00.527Z,8.80
2022-08-18T13:52:01.821Z,8.00
2022-08-18T13:57:03.146Z,8.80
2022-08-18T14:02:05.398Z,8.70
2022-08-18T14:07:09.206Z,8.00
2022-08-18T14:12:23.159Z,8.20
2022-08-18T14:17:24.451Z,7.80
2022-08-18T14:22:40.432Z,8.50
2022-08-18T14:27:44.052Z,8.80
2022-08-18T14:32:55.630Z,8.00
2022-08-18T14:37:57.262Z,9.50
2022-08-18T14:42:56.782Z,8.50
2022-08-18T14:47:57.941Z,9.10
2022-08-18T14:52:59.002Z,8.10
2022-08-18T14:57:59.759Z,9.70
2022-08-18T15:03:00.288Z,8.50
2022-08-18T15:08:00.641Z,8.60
2022-08-18T15:13:02.306Z,9.30
2022-08-18T15:18:03.512Z,8.20
2022-08-18T15:23:28.412Z,9.40
2022-08-18T15:28:30.175Z,9.10
2022-08-18T15:33:32.361Z,9.30
2022-08-18T15:38:34.832Z,10.30
2022-08-18T15:43:45.999Z,11.00
2022-08-18T15:48:45.701Z,10.90
2022-08-18T15:53:45.706Z,9.00
2022-08-18T15:58:47.035Z,7.90
2022-08-18T16:03:48.911Z,7.40
2022-08-18T16:08:48.665Z,7.70
2022-08-18T16:13:49.317Z,8.60
2022-08-18T16:18:49.139Z,8.00
2022-08-18T16:23:51.353Z,8.20
2022-08-18T16:28:54.416Z,9.40
2022-08-18T16:33:55.019Z,10.30
2022-08-18T16:38:58.218Z,8.50
2022-08-18T16:43:58.258Z,9.40
2022-08-18T16:48:59.412Z,9.40
2022-08-18T16:53:59.762Z,11.70
2022-08-18T16:59:17.525Z,8.80
2022-08-18T17:04:20.926Z,11.10
2022-08-18T17:09:20.779Z,10.00
2022-08-18T17:14:20.141Z,8.80
2022-08-18T17:19:19.266Z,8.90
2022-08-18T17:24:31.484Z,7.80
2022-08-18T17:29:44.051Z,10.70
2022-08-18T17:34:51.314Z,8.20
2022-08-18T17:40:02.317Z,10.30
2022-08-18T17:45:06.394Z,10.40
2022-08-18T17:50:32.659Z,10.70
2022-08-18T17:55:39.910Z,12.20
2022-08-18T18:00:40.727Z,12.00
2022-08-18T18:05:45.909Z,11.70
2022-08-18T18:11:05.474Z,10.30
2022-08-18T18:16:25.533Z,12.00
2022-08-18T18:21:53.572Z,11.10
2022-08-18T18:26:49.429Z,13.40
2022-08-18T18:32:02.040Z,14.40
2022-08-18T18:37:03.443Z,16.50
2022-08-18T18:42:20.132Z,12.10
2022-08-18T18:47:40.364Z,12.00
2022-08-18T18:52:53.162Z,11.00
2022-08-18T18:58:07.695Z,12.90
2022-08-18T19:03:19.064Z,9.70
2022-08-18T19:08:33.815Z,10.20
2022-08-18T19:13:40.495Z,11.40
2022-08-18T19:18:59.753Z,11.50
2022-08-18T19:24:19.028Z,14.10
2022-08-18T19:29:26.231Z,10.60
2022-08-18T19:34:30.181Z,10.60
2022-08-18T19:39:44.267Z,12.70
2022-08-18T19:45:14.877Z,10.30
2022-08-18T19:50:25.821Z,13.90
2022-08-18T19:55:40.797Z,14.70
2022-08-18T20:00:51.718Z,12.40
2022-08-18T20:06:34.541Z,12.00
2022-08-18T20:12:01.780Z,12.40
2022-08-18T20:17:23.164Z,13.90
2022-08-18T20:22:41.491Z,14.20
2022-08-18T20:27:43.640Z,13.50
2022-08-18T20:32:43.486Z,15.00
2022-08-18T20:37:43.449Z,14.20
2022-08-18T20:42:55.863Z,12.80
2022-08-18T20:48:43.205Z,13.00
2022-08-18T20:54:05.306Z,13.30
2022-08-18T20:59:20.379Z,13.60
2022-08-18T21:04:33.659Z,13.60
2022-08-18T21:09:33.059Z,15.70
2022-08-18T21:14:33.205Z,12.80
2022-08-18T21:19:42.358Z,12.30
2022-08-18T21:24:46.935Z,14.20
2022-08-18T21:29:49.617Z,11.50
2022-08-18T21:34:49.744Z,15.30
2022-08-18T21:39:59.991Z,11.40
2022-08-18T21:45:01.369Z,12.30
2022-08-18T21:50:14.938Z,11.60
2022-08-18T21:55:26.820Z,13.40
2022-08-18T22:00:31.939Z,15.70
2022-08-18T22:05:58.659Z,11.30
2022-08-18T22:12:00.604Z,11.90
2022-08-18T22:17:41.638Z,11.30
2022-08-18T22:22:58.092Z,12.60
2022-08-18T22:27:57.633Z,14.20
2022-08-18T22:32:56.577Z,12.30
2022-08-18T22:37:56.113Z,13.90
2022-08-18T22:42:57.640Z,13.50
2022-08-18T22:47:57.486Z,13.90
2022-08-18T22:52:56.582Z,14.00
2022-08-18T22:57:57.184Z,15.20
2022-08-18T23:02:57.667Z,12.30
2022-08-18T23:07:56.654Z,11.50
2022-08-18T23:12:55.230Z,15.10
2022-08-18T23:17:54.232Z,14.40
2022-08-18T23:22:53.532Z,14.20
2022-08-18T23:27:54.609Z,15.50
2022-08-18T23:32:55.066Z,14.50
2022-08-18T23:37:53.616Z,20.40
2022-08-18T23:42:52.939Z,14.40
2022-08-18T23:47:52.542Z,15.00
2022-08-18T23:53:02.996Z,18.20
2022-08-18T23:58:02.258Z,15.80
